createdAt,value
2022-10-20T00:02:21.061Z,8.57
2022-10-20T00:04:48.339Z,8.56
2022-10-20T00:07:16.409Z,8.51
2022-10-20T00:09:42.937Z,8.45
2022-10-20T00:12:09.405Z,8.44
2022-10-20T00:14:35.897Z,8.40
2022-10-20T00:17:02.357Z,8.34
2022-10-20T00:19:29.006Z,8.35
2022-10-20T00:21:55.598Z,8.27
2022-10-20T00:24:22.328Z,8.16
2022-10-20T00:26:48.823Z,8.15
2022-10-20T00:29:15.454Z,8.13
2022-10-20T00:31:43.002Z,8.13
2022-10-20T00:34:09.802Z,8.12
2022-10-20T00:36:36.450Z,8.07
2022-10-20T00:39:05.153Z,8.03
2022-10-20T00:41:33.522Z,7.96
2022-10-20T00:44:02.531Z,7.92
2022-10-20T00:46:39.142Z,7.89
2022-10-20T00:49:17.831Z,7.88
2022-10-20T00:51:44.581Z,7.89
2022-10-20T00:54:15.868Z,7.76
2022-10-20T00:56:45.268Z,7.72
2022-10-20T00:59:15.297Z,7.76
2022-10-20T01:01:43.462Z,7.66
2022-10-20T01:04:10.664Z,7.71
2022-10-20T01:06:38.109Z,7.64
2022-10-20T01:09:05.996Z,7.60
2022-10-20T01:11:47.728Z,7.49
2022-10-20T01:14:36.330Z,7.45
2022-10-20T01:17:17.904Z,7.51
2022-10-20T01:20:21.920Z,7.39
2022-10-20T01:23:07.299Z,7.35
2022-10-20T01:25:52.381Z,7.31
2022-10-20T01:28:48.296Z,7.27
2022-10-20T01:31:29.885Z,7.30
2022-10-20T01:34:18.417Z,7.24
2022-10-20T01:36:54.724Z,7.16
2022-10-20T01:39:31.263Z,7.20
2022-10-20T01:42:06.944Z,7.15
2022-10-20T01:44:35.908Z,7.05
2022-10-20T01:47:03.196Z,7.13
2022-10-20T01:49:29.740Z,7.06
2022-10-20T01:51:57.055Z,7.09
2022-10-20T01:54:30.461Z,7.04
2022-10-20T01:57:18.777Z,7.04
2022-10-20T02:00:12.077Z,7.00
2022-10-20T02:03:08.731Z,6.80
2022-10-20T02:06:03.139Z,6.92
2022-10-20T02:08:47.676Z,6.81
2022-10-20T02:11:22.780Z,6.98
2022-10-20T02:13:51.469Z,6.81
2022-10-20T02:16:25.951Z,6.81
2022-10-20T02:18:53.114Z,6.81
2022-10-20T02:21:20.819Z,6.77
2022-10-20T02:23:51.573Z,6.64
2022-10-20T02:26:22.134Z,6.47
2022-10-20T02:28:57.347Z,6.47
2022-10-20T02:31:24.903Z,6.59
2022-10-20T02:33:53.395Z,6.66
2022-10-20T02:36:21.717Z,6.55
2022-10-20T02:38:48.376Z,6.52
2022-10-20T02:41:14.928Z,6.47
2022-10-20T02:43:41.423Z,6.49
2022-10-20T02:46:08.050Z,6.48
2022-10-20T02:48:34.650Z,6.47
2022-10-20T02:51:01.241Z,6.60
2022-10-20T02:53:27.785Z,6.55
2022-10-20T02:55:54.365Z,6.52
2022-10-20T02:58:21.178Z,6.46
2022-10-20T03:00:50.582Z,6.40
2022-10-20T03:03:18.239Z,6.38
2022-10-20T03:05:45.987Z,6.24
2022-10-20T03:08:12.650Z,6.22
2022-10-20T03:10:50.332Z,6.15
2022-10-20T03:13:16.923Z,6.16
2022-10-20T03:15:43.504Z,6.16
2022-10-20T03:18:10.034Z,6.12
2022-10-20T03:20:37.825Z,6.19
2022-10-20T03:23:04.501Z,6.14
2022-10-20T03:25:32.578Z,6.07
2022-10-20T03:28:00.170Z,6.06
2022-10-20T03:30:27.033Z,5.97
2022-10-20T03:32:53.957Z,6.11
2022-10-20T03:35:23.660Z,6.06
2022-10-20T03:37:50.200Z,5.95
2022-10-20T03:40:16.854Z,5.99
2022-10-20T03:42:43.372Z,5.94
2022-10-20T03:45:12.652Z,5.88
2022-10-20T03:47:41.508Z,5.87
2022-10-20T03:50:08.341Z,5.92
2022-10-20T03:52:35.347Z,5.90
2022-10-20T03:55:02.225Z,5.82
2022-10-20T03:57:28.755Z,5.90
2022-10-20T03:59:55.360Z,6.02
2022-10-20T04:02:36.307Z,6.00
2022-10-20T04:05:03.687Z,5.96
2022-10-20T04:07:30.446Z,5.99
2022-10-20T04:09:57.062Z,5.92
2022-10-20T04:12:24.159Z,5.97
2022-10-20T04:14:50.866Z,5.93
2022-10-20T04:17:17.409Z,6.01
2022-10-20T04:19:43.927Z,6.02
2022-10-20T04:22:10.549Z,6.09
2022-10-20T04:24:37.087Z,5.94
2022-10-20T04:27:06.744Z,6.04
2022-10-20T04:29:34.600Z,5.93
2022-10-20T04:32:01.137Z,5.96
2022-10-20T04:34:27.702Z,5.93
2022-10-20T04:36:54.196Z,5.96
2022-10-20T04:39:20.825Z,6.00
2022-10-20T04:41:47.378Z,5.96
2022-10-20T04:44:14.041Z,5.93
2022-10-20T04:46:40.558Z,5.97
2022-10-20T04:49:07.082Z,5.89
2022-10-20T04:51:33.641Z,5.82
2022-10-20T04:54:00.206Z,5.88
2022-10-20T04:56:26.913Z,5.91
2022-10-20T04:58:55.980Z,5.93
2022-10-20T05:01:25.032Z,5.93
2022-10-20T05:03:51.654Z,5.93
2022-10-20T05:06:19.542Z,5.91
2022-10-20T05:08:48.367Z,5.82
2022-10-20T05:11:16.418Z,5.86
2022-10-20T05:13:43.413Z,5.78
2022-10-20T05:16:10.880Z,5.76
2022-10-20T05:18:38.326Z,5.79
2022-10-20T05:21:18.296Z,5.89
2022-10-20T05:23:46.022Z,5.81
2022-10-20T05:26:19.861Z,5.91
2022-10-20T05:28:48.820Z,5.93
2022-10-20T05:31:17.895Z,5.90
2022-10-20T05:33:46.651Z,5.81
2022-10-20T05:36:19.298Z,5.80
2022-10-20T05:38:49.927Z,5.84
2022-10-20T05:41:19.328Z,6.66
2022-10-20T05:43:50.574Z,7.23
2022-10-20T05:46:18.613Z,6.70
2022-10-20T05:48:45.625Z,6.58
2022-10-20T05:51:18.810Z,6.54
2022-10-20T05:53:47.086Z,6.45
2022-10-20T05:56:17.736Z,6.51
2022-10-20T05:58:44.740Z,6.58
2022-10-20T06:01:26.300Z,6.72
2022-10-20T06:03:58.294Z,6.79
2022-10-20T06:06:27.343Z,7.08
2022-10-20T06:08:54.535Z,7.22
2022-10-20T06:11:22.568Z,7.33
2022-10-20T06:13:53.158Z,7.38
2022-10-20T06:16:25.205Z,7.53
2022-10-20T06:18:52.218Z,7.53
2022-10-20T06:21:21.434Z,7.72
2022-10-20T06:23:48.589Z,7.86
2022-10-20T06:26:20.272Z,8.12
2022-10-20T06:28:48.874Z,8.36
2022-10-20T06:31:18.079Z,8.65
2022-10-20T06:33:45.724Z,8.68
2022-10-20T06:36:12.962Z,8.61
2022-10-20T06:38:40.228Z,8.76
2022-10-20T06:41:09.580Z,9.01
2022-10-20T06:43:36.523Z,9.07
2022-10-20T06:46:09.049Z,8.86
2022-10-20T06:48:35.811Z,9.33
2022-10-20T06:51:05.891Z,9.82
2022-10-20T06:53:34.375Z,10.13
2022-10-20T06:56:03.868Z,10.82
2022-10-20T06:58:30.596Z,11.54
2022-10-20T07:01:08.285Z,12.56
2022-10-20T07:03:38.928Z,13.26
2022-10-20T07:06:07.351Z,15.03
2022-10-20T07:08:35.638Z,15.40
2022-10-20T07:11:06.054Z,15.95
2022-10-20T07:13:34.080Z,15.99
2022-10-20T07:16:01.580Z,14.59
2022-10-20T07:18:29.661Z,13.37
2022-10-20T07:20:58.140Z,13.65
2022-10-20T07:23:25.447Z,14.86
2022-10-20T07:25:52.075Z,15.90
2022-10-20T07:28:21.170Z,16.77
2022-10-20T07:30:47.664Z,16.98
2022-10-20T07:33:14.236Z,16.46
2022-10-20T07:35:40.792Z,16.74
2022-10-20T07:38:07.329Z,16.76
2022-10-20T07:40:33.853Z,18.02
2022-10-20T07:43:00.327Z,19.08
2022-10-20T07:45:28.425Z,19.64
2022-10-20T07:47:54.997Z,19.89
2022-10-20T07:50:21.560Z,21.13
2022-10-20T07:52:54.210Z,21.04
2022-10-20T07:55:37.698Z,20.53
2022-10-20T07:58:04.974Z,21.20
2022-10-20T08:00:31.523Z,20.25
2022-10-20T08:02:58.080Z,20.42
2022-10-20T08:05:24.638Z,21.71
2022-10-20T08:07:51.181Z,22.03
2022-10-20T08:10:17.864Z,21.67
2022-10-20T08:12:44.349Z,22.20
2022-10-20T08:15:11.486Z,21.27
2022-10-20T08:17:39.035Z,21.58
2022-10-20T08:22:56.990Z,21.84
2022-10-20T08:25:23.937Z,21.42
2022-10-20T08:27:51.903Z,22.58
2022-10-20T08:30:23.723Z,23.49
2022-10-20T08:32:52.709Z,23.23
2022-10-20T08:35:20.082Z,23.47
2022-10-20T08:37:46.662Z,23.84
2022-10-20T08:40:19.195Z,23.39
2022-10-20T08:42:48.077Z,24.53
2022-10-20T08:45:16.985Z,23.55
2022-10-20T08:47:45.277Z,24.39
2022-10-20T08:50:16.283Z,23.56
2022-10-20T08:52:45.080Z,23.76
2022-10-20T08:55:33.279Z,24.51
2022-10-20T08:58:11.773Z,25.63
2022-10-20T09:00:39.235Z,24.73
2022-10-20T09:03:25.235Z,25.99
2022-10-20T09:05:56.930Z,25.34
2022-10-20T09:08:28.143Z,25.11
2022-10-20T09:10:55.540Z,23.40
2022-10-20T09:13:31.485Z,23.27
2022-10-20T09:16:03.678Z,24.68
2022-10-20T09:18:31.001Z,23.62
2022-10-20T09:21:05.906Z,24.92
2022-10-20T09:23:42.826Z,24.40
2022-10-20T09:26:30.877Z,22.93
2022-10-20T09:29:34.591Z,22.98
2022-10-20T09:32:11.464Z,24.11
2022-10-20T09:34:47.754Z,24.51
2022-10-20T09:37:19.014Z,22.89
2022-10-20T09:39:58.528Z,22.02
2022-10-20T09:42:35.544Z,21.71
2022-10-20T09:45:28.725Z,23.16
2022-10-20T09:48:19.562Z,25.23
2022-10-20T09:50:50.236Z,25.77
2022-10-20T09:53:29.489Z,26.35
2022-10-20T09:55:57.490Z,24.77
2022-10-20T09:58:29.488Z,25.55
2022-10-20T10:01:05.947Z,24.83
2022-10-20T10:03:41.430Z,26.49
2022-10-20T10:06:26.932Z,27.53
2022-10-20T10:08:53.874Z,27.36
2022-10-20T10:11:24.007Z,26.56
2022-10-20T10:13:52.919Z,24.81
2022-10-20T10:16:23.241Z,24.26
2022-10-20T10:19:01.874Z,22.94
2022-10-20T10:22:08.684Z,23.15
2022-10-20T10:24:42.568Z,23.84
2022-10-20T10:27:28.937Z,23.27
2022-10-20T10:30:16.402Z,22.95
2022-10-20T10:32:49.355Z,23.12
2022-10-20T10:35:34.021Z,22.22
2022-10-20T10:38:01.038Z,22.89
2022-10-20T10:41:03.399Z,22.97
2022-10-20T10:44:00.611Z,23.97
2022-10-20T10:46:31.712Z,23.27
2022-10-20T10:49:23.593Z,24.23
2022-10-20T10:52:04.695Z,24.62
2022-10-20T10:55:01.853Z,25.37
2022-10-20T10:57:41.135Z,24.79
2022-10-20T11:00:19.189Z,25.40
2022-10-20T11:02:45.617Z,22.97
2022-10-20T11:05:49.058Z,22.52
2022-10-20T11:08:34.905Z,20.97
2022-10-20T11:11:26.183Z,20.17
2022-10-20T11:14:31.811Z,20.57
2022-10-20T11:17:50.660Z,20.06
2022-10-20T11:20:45.894Z,19.76
2022-10-20T11:23:18.519Z,21.14
2022-10-20T11:26:14.218Z,22.24
2022-10-20T11:28:50.551Z,23.30
2022-10-20T11:31:17.131Z,24.71
2022-10-20T11:33:47.491Z,23.18
2022-10-20T11:36:19.379Z,22.48
2022-10-20T11:38:59.677Z,22.60
2022-10-20T11:41:49.545Z,23.37
2022-10-20T11:44:25.010Z,22.14
2022-10-20T11:47:24.181Z,23.60
2022-10-20T11:49:52.515Z,23.73
2022-10-20T11:53:01.035Z,23.57
2022-10-20T11:56:12.494Z,22.82
2022-10-20T11:59:01.311Z,21.82
2022-10-20T12:01:52.271Z,22.10
2022-10-20T12:04:36.656Z,22.29
2022-10-20T12:07:15.260Z,21.86
2022-10-20T12:09:56.056Z,19.82
2022-10-20T12:12:53.046Z,19.60
2022-10-20T12:15:25.624Z,20.27
2022-10-20T12:17:55.818Z,20.74
2022-10-20T12:20:22.303Z,22.06
2022-10-20T12:22:54.665Z,21.04
2022-10-20T12:25:27.240Z,19.37
2022-10-20T12:28:25.701Z,18.05
2022-10-20T12:31:04.486Z,17.13
2022-10-20T12:33:41.356Z,16.71
2022-10-20T12:36:36.553Z,16.63
2022-10-20T12:39:25.031Z,16.08
2022-10-20T12:42:01.453Z,15.95
2022-10-20T12:44:32.179Z,15.83
2022-10-20T12:47:07.396Z,15.60
2022-10-20T12:49:43.796Z,15.45
2022-10-20T12:52:23.496Z,15.36
2022-10-20T12:55:01.221Z,15.16
2022-10-20T12:57:30.902Z,15.06
2022-10-20T12:59:57.498Z,14.85
2022-10-20T13:02:23.971Z,14.98
2022-10-20T13:05:00.468Z,15.36
2022-10-20T13:07:47.868Z,15.80
2022-10-20T13:10:26.694Z,15.90
2022-10-20T13:13:13.130Z,16.10
2022-10-20T13:15:42.666Z,15.77
2022-10-20T13:18:12.415Z,15.40
2022-10-20T13:20:41.713Z,15.37
2022-10-20T13:23:13.386Z,15.05
2022-10-20T13:25:40.999Z,14.93
2022-10-20T13:28:13.669Z,14.74
2022-10-20T13:30:52.376Z,14.63
2022-10-20T13:36:46.373Z,14.62
2022-10-20T13:39:18.915Z,14.76
2022-10-20T13:42:22.953Z,14.68
2022-10-20T13:44:58.000Z,14.74
2022-10-20T13:47:46.112Z,15.12
2022-10-20T13:52:49.709Z,15.44
2022-10-20T13:55:23.152Z,15.71
2022-10-20T13:57:56.147Z,16.08
2022-10-20T14:00:24.790Z,16.13
2022-10-20T14:02:54.152Z,16.21
2022-10-20T14:05:22.260Z,16.07
2022-10-20T14:07:52.254Z,16.23
2022-10-20T14:10:28.456Z,16.23
2022-10-20T14:12:57.618Z,16.12
2022-10-20T14:15:30.761Z,15.86
2022-10-20T14:18:00.979Z,15.84
2022-10-20T14:20:29.120Z,15.62
2022-10-20T14:22:58.230Z,15.52
2022-10-20T14:25:26.155Z,15.38
2022-10-20T14:27:54.064Z,15.36
2022-10-20T14:30:21.279Z,15.36
2022-10-20T14:32:50.150Z,15.36
2022-10-20T14:35:18.991Z,15.17
2022-10-20T14:37:52.777Z,14.96
2022-10-20T14:40:21.488Z,14.79
2022-10-20T14:42:49.007Z,14.79
2022-10-20T14:45:21.782Z,14.67
2022-10-20T14:47:49.436Z,14.57
2022-10-20T14:50:41.040Z,14.59
2022-10-20T14:53:22.839Z,14.53
2022-10-20T14:55:49.571Z,14.42
2022-10-20T14:58:33.711Z,14.34
2022-10-20T15:01:23.036Z,14.25
2022-10-20T15:04:16.448Z,14.06
2022-10-20T15:06:44.198Z,14.06
2022-10-20T15:09:30.503Z,13.94
2022-10-20T15:11:57.112Z,14.12
2022-10-20T15:14:23.826Z,13.93
2022-10-20T15:16:50.492Z,13.83
2022-10-20T15:19:28.999Z,13.69
2022-10-20T15:22:17.379Z,13.61
2022-10-20T15:24:44.693Z,13.63
2022-10-20T15:27:16.174Z,13.55
2022-10-20T15:29:51.141Z,13.48
2022-10-20T15:32:18.396Z,13.31
2022-10-20T15:34:44.985Z,13.30
2022-10-20T15:37:11.498Z,13.15
2022-10-20T15:39:38.043Z,12.96
2022-10-20T15:42:11.006Z,12.77
2022-10-20T15:44:38.127Z,12.60
2022-10-20T15:47:04.714Z,12.41
2022-10-20T15:49:31.241Z,12.27
2022-10-20T15:51:58.014Z,12.46
2022-10-20T15:54:25.119Z,12.19
2022-10-20T15:56:51.781Z,12.07
2022-10-20T15:59:19.384Z,12.02
2022-10-20T16:01:45.878Z,11.94
2022-10-20T16:04:26.257Z,11.73
2022-10-20T16:06:59.146Z,11.71
2022-10-20T16:09:27.194Z,11.61
2022-10-20T16:11:55.265Z,11.48
2022-10-20T16:14:21.789Z,11.37
2022-10-20T16:16:48.398Z,11.26
2022-10-20T16:19:15.138Z,11.13
2022-10-20T16:21:41.686Z,11.01
2022-10-20T16:24:08.238Z,10.85
2022-10-20T16:26:34.856Z,10.77
2022-10-20T16:29:01.411Z,10.75
2022-10-20T16:31:29.563Z,10.65
2022-10-20T16:33:59.913Z,10.74
2022-10-20T16:36:26.429Z,10.91
2022-10-20T16:38:56.936Z,10.69
2022-10-20T16:41:23.433Z,10.82
2022-10-20T16:43:50.044Z,10.89
2022-10-20T16:46:16.685Z,10.97
2022-10-20T16:48:47.577Z,11.21
2022-10-20T16:51:15.816Z,11.39
2022-10-20T16:53:42.845Z,11.41
2022-10-20T16:56:09.606Z,11.42
2022-10-20T16:58:36.182Z,11.39
2022-10-20T17:01:09.691Z,11.44
2022-10-20T17:03:37.982Z,11.41
2022-10-20T17:06:07.236Z,11.39
2022-10-20T17:08:36.401Z,11.43
2022-10-20T17:11:06.307Z,11.36
2022-10-20T17:13:33.778Z,11.26
2022-10-20T17:16:11.753Z,11.19
2022-10-20T17:18:38.987Z,11.09
2022-10-20T17:21:06.497Z,10.98
2022-10-20T17:23:37.448Z,10.98
2022-10-20T17:26:08.644Z,10.85
2022-10-20T17:28:36.492Z,10.77
2022-10-20T17:31:06.527Z,10.95
2022-10-20T17:33:33.473Z,10.95
2022-10-20T17:36:01.383Z,10.85
2022-10-20T17:38:29.854Z,10.80
2022-10-20T17:40:56.453Z,10.72
2022-10-20T17:43:23.904Z,10.57
2022-10-20T17:46:18.127Z,10.57
2022-10-20T17:48:45.419Z,10.48
2022-10-20T17:51:19.658Z,10.47
2022-10-20T17:53:48.348Z,10.41
2022-10-20T17:56:17.983Z,10.42
2022-10-20T17:58:46.260Z,10.31
2022-10-20T18:01:25.278Z,10.26
2022-10-20T18:03:58.291Z,10.17
2022-10-20T18:06:31.216Z,10.13
2022-10-20T18:09:02.156Z,10.07
2022-10-20T18:11:33.321Z,9.99
2022-10-20T18:14:00.627Z,9.90
2022-10-20T18:16:29.821Z,9.94
2022-10-20T18:21:30.626Z,9.81
2022-10-20T18:24:02.029Z,9.68
2022-10-20T18:26:29.899Z,9.69
2022-10-20T18:28:58.324Z,9.70
2022-10-20T18:31:27.340Z,9.79
2022-10-20T18:34:04.253Z,9.74
2022-10-20T18:36:33.395Z,9.66
2022-10-20T18:39:00.591Z,9.55
2022-10-20T18:41:29.788Z,9.53
2022-10-20T18:44:03.155Z,9.52
2022-10-20T18:46:31.787Z,9.56
2022-10-20T18:49:00.143Z,9.56
2022-10-20T18:51:27.380Z,9.42
2022-10-20T18:53:55.989Z,9.36
2022-10-20T18:56:24.942Z,9.31
2022-10-20T18:58:55.837Z,9.26
2022-10-20T19:01:25.748Z,9.21
2022-10-20T19:03:53.975Z,9.25
2022-10-20T19:06:23.889Z,9.18
2022-10-20T19:08:55.954Z,9.25
2022-10-20T19:11:25.907Z,9.18
2022-10-20T19:13:53.283Z,9.21
2022-10-20T19:16:28.704Z,9.19
2022-10-20T19:18:56.921Z,9.20
2022-10-20T19:21:24.501Z,9.21
2022-10-20T19:24:13.717Z,9.29
2022-10-20T19:27:25.111Z,9.23
2022-10-20T19:29:48.517Z,9.29
2022-10-20T19:32:15.260Z,9.36
2022-10-20T19:34:41.922Z,9.39
2022-10-20T19:37:09.265Z,9.27
2022-10-20T19:39:38.947Z,9.26
2022-10-20T19:42:06.625Z,9.29
2022-10-20T19:44:33.424Z,9.40
2022-10-20T19:47:00.407Z,9.50
2022-10-20T19:49:27.012Z,9.48
2022-10-20T19:51:54.049Z,9.51
2022-10-20T19:54:20.753Z,9.58
2022-10-20T19:56:47.561Z,9.60
2022-10-20T19:59:14.455Z,9.55
2022-10-20T20:01:41.055Z,9.57
2022-10-20T20:04:07.797Z,9.57
2022-10-20T20:06:35.366Z,9.56
2022-10-20T20:09:06.874Z,9.54
2022-10-20T20:11:36.186Z,9.55
2022-10-20T20:14:10.349Z,9.63
2022-10-20T20:16:37.251Z,9.53
2022-10-20T20:19:04.092Z,9.57
2022-10-20T20:21:30.688Z,9.69
2022-10-20T20:24:00.958Z,9.67
2022-10-20T20:26:29.707Z,9.66
2022-10-20T20:28:57.127Z,9.66
2022-10-20T20:31:24.225Z,9.73
2022-10-20T20:33:51.008Z,9.72
2022-10-20T20:36:17.551Z,9.79
2022-10-20T20:38:44.307Z,9.80
2022-10-20T20:41:13.616Z,9.82
2022-10-20T20:43:40.915Z,9.84
2022-10-20T20:46:13.721Z,9.90
2022-10-20T20:48:40.478Z,9.91
2022-10-20T20:51:07.365Z,9.82
2022-10-20T20:53:35.737Z,9.80
2022-10-20T20:56:05.293Z,9.79
2022-10-20T20:58:32.215Z,9.81
2022-10-20T21:01:13.920Z,9.79
2022-10-20T21:03:40.727Z,9.90
2022-10-20T21:06:16.230Z,9.87
2022-10-20T21:08:45.140Z,9.83
2022-10-20T21:11:20.518Z,9.92
2022-10-20T21:13:48.339Z,9.88
2022-10-20T21:16:37.603Z,9.85
2022-10-20T21:19:09.660Z,9.87
2022-10-20T21:21:44.984Z,9.98
2022-10-20T21:24:12.578Z,9.87
2022-10-20T21:26:39.756Z,9.82
2022-10-20T21:29:06.373Z,9.83
2022-10-20T21:31:32.893Z,9.83
2022-10-20T21:34:02.063Z,9.79
2022-10-20T21:36:31.470Z,9.82
2022-10-20T21:38:59.394Z,9.68
2022-10-20T21:41:28.731Z,9.58
2022-10-20T21:43:57.294Z,9.59
2022-10-20T21:46:25.289Z,9.62
2022-10-20T21:48:54.927Z,9.59
2022-10-20T21:51:27.067Z,9.57
2022-10-20T21:54:02.156Z,9.68
2022-10-20T21:56:29.171Z,9.67
2022-10-20T21:58:56.094Z,9.65
2022-10-20T22:01:24.724Z,9.58
2022-10-20T22:03:52.822Z,9.56
2022-10-20T22:06:22.458Z,9.55
2022-10-20T22:08:53.208Z,9.55
2022-10-20T22:11:23.828Z,9.44
2022-10-20T22:13:50.708Z,9.39
2022-10-20T22:16:20.698Z,9.30
2022-10-20T22:18:47.568Z,9.33
2022-10-20T22:21:18.259Z,9.20
2022-10-20T22:23:45.489Z,9.10
2022-10-20T22:26:12.602Z,8.93
2022-10-20T22:28:39.354Z,8.76
2022-10-20T22:31:06.908Z,8.72
2022-10-20T22:33:33.905Z,8.71
2022-10-20T22:36:00.390Z,8.58
2022-10-20T22:38:27.064Z,8.64
2022-10-20T22:40:58.696Z,8.72
2022-10-20T22:43:25.880Z,8.60
2022-10-20T22:45:52.373Z,8.71
2022-10-20T22:48:18.959Z,8.75
2022-10-20T22:50:45.640Z,8.80
2022-10-20T22:53:12.402Z,8.82
2022-10-20T22:55:39.045Z,8.91
2022-10-20T22:58:05.633Z,8.90
2022-10-20T23:00:32.279Z,8.87
2022-10-20T23:03:02.156Z,8.90
2022-10-20T23:05:28.681Z,8.90
2022-10-20T23:07:55.155Z,8.78
2022-10-20T23:10:21.673Z,8.87
2022-10-20T23:12:48.210Z,8.86
2022-10-20T23:15:14.731Z,8.89
2022-10-20T23:17:41.274Z,8.93
2022-10-20T23:20:08.183Z,8.93
2022-10-20T23:22:34.695Z,8.94
2022-10-20T23:25:02.257Z,8.95
2022-10-20T23:27:28.717Z,9.04
2022-10-20T23:29:55.248Z,9.07
2022-10-20T23:32:21.802Z,9.03
2022-10-20T23:34:48.285Z,8.97
2022-10-20T23:37:14.787Z,8.92
2022-10-20T23:39:41.629Z,8.95
2022-10-20T23:42:08.135Z,9.09
2022-10-20T23:44:34.599Z,8.96
2022-10-20T23:47:01.107Z,8.93
2022-10-20T23:49:27.615Z,9.25
2022-10-20T23:51:54.124Z,9.36
2022-10-20T23:54:20.943Z,9.21
2022-10-20T23:56:47.515Z,9.18
2022-10-20T23:59:14.461Z,9.13
